Portada
METAR-TAF:

METAR-TAF

Aeroports :

Manchester, Nova Hampshire, Estats Units d'Amèrica

latitud: 42-55-45N, longitud: 071-26-09W, altitud: 71 m

Observació

L'informe es va fer fa 35 minuts, a les 03:53 UTC
Vent 3 kt del Sud
Temperatura -3°C
Humitat 86%
Pressió 1023 hPa
Visibilitat: 16.1 km
Cel clar

METAR: KMHT 310353Z 17003KT 10SM CLR M03/M05 A3022 RMK AO2 SLP254 I1000 T10331050

Hora: 00:28 (04:28 UTC)

Pronòstic

L'informe es va fer fa 5 hores i 8 minuts, a les 23:20 UTC
Pronòstic vàlid del 31 a les 00 UTC al 31 a les 24 UTC
Vent 4 kt amb direcció variable
Visibilitat: 10 km
Escasses núvols a una alçada de 25000 ft
A partir de les 31 a les 1700 UTC
Vent 5 kt del Sud/Sud-Oest
Visibilitat: 10 km
Cel clar

TAF: KMHT 302320Z 3100/3124 VRB04KT P6SM FEW250 FM311700 21005KT P6SM SKC

Observacions i pronòstics meteorològics de més de 4000 aeroports (METAR i TAF).

Les estacions disponibles són els punts grocs i vermells al mapa.

Posi el ratolí al punt desitjat per veure el nom de l'estació.

Feu clic per veure les observacions i els pronòstics meteorològics.

Per canviar el mapa: feu clic els botons verds amb una creu de color negre per apropar; al botó verd amb un guió per allunyar la imatge; o en les fletxes verdes per a mapes adjacents.


METAR-TAF: